createdAt,value
2017-09-02T16:51:40.674Z,16.08
2017-09-02T16:52:41.369Z,16.10
2017-09-02T16:53:42.056Z,16.21
2017-09-02T16:54:42.748Z,16.28
2017-09-02T16:55:43.693Z,16.46
2017-09-02T16:56:44.391Z,16.35
2017-09-02T16:57:45.092Z,16.43
2017-09-02T16:58:45.783Z,16.47
2017-09-02T16:59:46.486Z,16.49
2017-09-02T17:00:47.427Z,16.41
2017-09-02T17:01:48.119Z,16.36
2017-09-02T17:02:48.829Z,16.29
2017-09-02T17:03:49.523Z,16.31
2017-09-02T17:04:50.224Z,16.36
2017-09-02T17:05:51.167Z,16.36
2017-09-02T17:06:51.858Z,16.24
2017-09-02T17:07:52.559Z,16.29
2017-09-02T17:08:53.252Z,16.29
2017-09-02T17:09:53.961Z,16.20
2017-09-02T17:10:54.906Z,16.28
2017-09-02T17:11:55.607Z,16.15
2017-09-02T17:12:56.300Z,16.35
2017-09-02T17:13:56.993Z,16.24
2017-09-02T17:14:57.687Z,16.26
2017-09-02T17:15:58.632Z,16.26
2017-09-02T17:16:59.330Z,16.24
2017-09-02T17:18:00.023Z,16.23
2017-09-02T17:19:00.715Z,16.16
2017-09-02T17:20:01.408Z,16.08
2017-09-02T17:21:02.361Z,16.15
2017-09-02T17:22:03.058Z,16.16
2017-09-02T17:23:03.798Z,16.12
2017-09-02T17:24:04.490Z,16.09
2017-09-02T17:25:05.187Z,16.01
2017-09-02T17:26:06.129Z,15.90
2017-09-02T17:27:06.821Z,15.91
2017-09-02T17:28:07.519Z,15.75
2017-09-02T17:29:08.219Z,15.73
2017-09-02T17:30:08.923Z,15.84
2017-09-02T17:31:09.614Z,15.84
2017-09-02T17:32:10.316Z,15.86
2017-09-02T17:33:11.015Z,15.95
2017-09-02T17:34:11.713Z,15.92
2017-09-02T17:35:12.409Z,15.84
2017-09-02T17:36:13.102Z,15.95
2017-09-02T17:37:13.830Z,15.92
2017-09-02T17:38:14.500Z,15.83
2017-09-02T17:39:15.190Z,15.84
2017-09-02T17:40:15.883Z,15.92
2017-09-02T17:41:16.577Z,15.72
2017-09-02T17:42:17.273Z,15.73
2017-09-02T17:43:17.965Z,15.58
2017-09-02T17:44:18.667Z,15.59
2017-09-02T17:45:19.361Z,15.55
2017-09-02T17:46:20.307Z,15.58
2017-09-02T17:47:21.006Z,15.46
2017-09-02T17:48:21.703Z,15.40
2017-09-02T17:49:22.405Z,15.43
2017-09-02T17:50:23.098Z,15.42
2017-09-02T17:51:23.792Z,15.47
2017-09-02T17:52:24.484Z,15.43
2017-09-02T17:53:25.183Z,15.37
2017-09-02T17:54:25.875Z,15.44
2017-09-02T17:55:26.573Z,15.36
2017-09-02T17:56:27.514Z,15.37
2017-09-02T17:57:28.214Z,15.31
2017-09-02T17:58:28.912Z,15.29
2017-09-02T17:59:29.617Z,15.19
2017-09-02T18:00:30.306Z,15.24
2017-09-02T18:01:31.247Z,15.25
2017-09-02T18:02:31.946Z,15.17
2017-09-02T18:03:32.641Z,15.25
2017-09-02T18:04:33.343Z,15.22
2017-09-02T18:05:34.034Z,15.24
2017-09-02T18:06:34.979Z,15.27
2017-09-02T18:07:35.671Z,15.25
2017-09-02T18:08:36.361Z,15.22
2017-09-02T18:09:37.055Z,15.19
2017-09-02T18:10:37.743Z,15.22
2017-09-02T18:11:38.687Z,15.10
2017-09-02T18:12:39.377Z,15.17
2017-09-02T18:13:40.087Z,15.14
2017-09-02T18:14:40.778Z,15.11
2017-09-02T18:15:41.467Z,15.06
2017-09-02T18:16:42.409Z,15.04
2017-09-02T18:17:43.107Z,14.99
2017-09-02T18:18:43.809Z,15.03
2017-09-02T18:19:44.501Z,15.07
2017-09-02T18:20:45.192Z,14.99
2017-09-02T18:21:45.879Z,15.07
2017-09-02T18:22:46.611Z,14.97
2017-09-02T18:23:47.297Z,15.03
2017-09-02T18:24:47.986Z,15.04
2017-09-02T18:25:48.681Z,15.03
2017-09-02T18:26:49.374Z,15.04
2017-09-02T18:27:50.319Z,15.03
2017-09-02T18:28:51.009Z,15.04
2017-09-02T18:29:51.701Z,14.99
2017-09-02T18:30:52.395Z,14.89
2017-09-02T18:31:53.090Z,15.00
2017-09-02T18:32:54.095Z,14.92
2017-09-02T18:33:54.790Z,14.96
2017-09-02T18:34:55.483Z,14.91
2017-09-02T18:35:56.172Z,14.86
2017-09-02T18:36:56.862Z,14.82
2017-09-02T18:37:57.551Z,14.88
2017-09-02T18:38:58.246Z,14.79
2017-09-02T18:39:58.939Z,14.79
2017-09-02T18:40:59.640Z,14.81
2017-09-02T18:42:00.327Z,14.86
2017-09-02T18:43:01.264Z,14.79
2017-09-02T18:44:01.972Z,14.79
2017-09-02T18:45:02.659Z,14.66
2017-09-02T18:46:03.349Z,14.65
2017-09-02T18:47:04.038Z,14.66
2017-09-02T18:48:04.983Z,14.73
2017-09-02T18:49:05.682Z,14.78
2017-09-02T18:50:06.378Z,14.66
2017-09-02T18:51:07.077Z,14.65
2017-09-02T18:52:07.768Z,14.66
2017-09-02T18:53:08.713Z,14.60
2017-09-02T18:54:09.406Z,14.50
2017-09-02T18:55:10.099Z,14.59
2017-09-02T18:56:10.788Z,14.55
2017-09-02T18:57:11.486Z,14.53
2017-09-02T18:58:12.431Z,14.54
2017-09-02T18:59:13.121Z,14.66
2017-09-02T19:00:13.820Z,14.54
2017-09-02T19:01:14.506Z,14.58
2017-09-02T19:02:15.196Z,14.45
2017-09-02T19:03:16.151Z,14.47
2017-09-02T19:04:16.840Z,14.45
2017-09-02T19:05:17.539Z,14.41
2017-09-02T19:06:18.232Z,14.37
2017-09-02T19:07:18.925Z,14.45
2017-09-02T19:08:19.863Z,14.54
2017-09-02T19:09:20.564Z,14.53
2017-09-02T19:10:21.265Z,14.48
2017-09-02T19:11:21.966Z,14.55
2017-09-02T19:12:22.677Z,14.50
2017-09-02T19:13:23.619Z,14.48
2017-09-02T19:14:24.325Z,14.47
2017-09-02T19:15:25.025Z,14.50
2017-09-02T19:16:25.767Z,14.45
2017-09-02T19:17:26.457Z,14.37
2017-09-02T19:18:27.411Z,14.28
2017-09-02T19:19:28.101Z,14.23
2017-09-02T19:20:28.793Z,14.29
2017-09-02T19:21:29.495Z,14.17
2017-09-02T19:22:30.193Z,14.20
2017-09-02T19:23:31.135Z,14.22
2017-09-02T19:24:31.825Z,14.28
2017-09-02T19:25:32.524Z,14.32
2017-09-02T19:26:33.216Z,14.23
2017-09-02T19:27:33.911Z,14.22
2017-09-02T19:28:34.852Z,14.26
2017-09-02T19:29:35.551Z,14.35
2017-09-02T19:30:36.243Z,14.30
2017-09-02T19:31:36.935Z,14.26
2017-09-02T19:32:37.626Z,14.35
2017-09-02T19:33:38.567Z,14.30
2017-09-02T19:34:39.262Z,14.26
2017-09-02T19:35:39.954Z,14.36
2017-09-02T19:36:40.645Z,14.18
2017-09-02T19:37:41.340Z,14.18
2017-09-02T19:38:42.279Z,14.22
2017-09-02T19:39:42.965Z,14.18
2017-09-02T19:40:43.655Z,14.17
2017-09-02T19:41:44.352Z,14.23
2017-09-02T19:42:45.046Z,14.28
2017-09-02T19:43:45.738Z,14.26
2017-09-02T19:44:46.431Z,14.32
2017-09-02T19:45:47.121Z,14.36
2017-09-02T19:46:47.814Z,14.29
2017-09-02T19:47:48.505Z,14.30
2017-09-02T19:48:49.462Z,14.40
2017-09-02T19:49:50.152Z,14.44
2017-09-02T19:50:50.840Z,14.41
2017-09-02T19:51:51.531Z,14.36
2017-09-02T19:52:52.226Z,14.29
2017-09-02T19:53:53.016Z,14.33
2017-09-02T19:54:53.711Z,14.43
2017-09-02T19:55:54.404Z,14.32
2017-09-02T19:56:55.097Z,14.33
2017-09-02T19:57:55.785Z,14.22
2017-09-02T19:58:56.723Z,14.20
2017-09-02T19:59:57.417Z,14.12
2017-09-02T20:00:58.109Z,14.26
2017-09-02T20:01:58.805Z,14.26
2017-09-02T20:02:59.495Z,14.14
2017-09-02T20:04:00.435Z,14.17
2017-09-02T20:05:01.131Z,14.11
2017-09-02T20:06:01.813Z,14.12
2017-09-02T20:07:02.520Z,14.18
2017-09-02T20:08:03.212Z,14.05
2017-09-02T20:09:04.154Z,14.04
2017-09-02T20:10:04.853Z,14.11
2017-09-02T20:11:05.554Z,14.07
2017-09-02T20:12:06.244Z,14.11
2017-09-02T20:13:06.942Z,14.10
2017-09-02T20:14:07.890Z,13.99
2017-09-02T20:15:08.599Z,13.93
2017-09-02T20:16:09.270Z,14.00
2017-09-02T20:17:09.971Z,13.97
2017-09-02T20:18:10.669Z,14.04
2017-09-02T20:19:11.613Z,13.99
2017-09-02T20:20:12.301Z,14.05
2017-09-02T20:21:12.992Z,14.15
2017-09-02T20:22:13.686Z,14.11
2017-09-02T20:23:14.400Z,14.11
2017-09-02T20:24:15.396Z,14.08
2017-09-02T20:25:16.094Z,14.05
2017-09-02T20:26:16.790Z,14.03
2017-09-02T20:27:17.480Z,13.99
2017-09-02T20:28:18.172Z,13.99
2017-09-02T20:29:19.121Z,13.99
2017-09-02T20:30:19.815Z,13.90
2017-09-02T20:31:20.505Z,13.90
2017-09-02T20:32:21.205Z,13.83
2017-09-02T20:33:21.900Z,13.89
2017-09-02T20:34:22.839Z,13.92
2017-09-02T20:35:23.538Z,13.83
2017-09-02T20:36:24.234Z,13.87
2017-09-02T20:37:24.924Z,13.89
2017-09-02T20:38:25.635Z,13.78
2017-09-02T20:39:26.587Z,13.93
2017-09-02T20:40:27.286Z,13.92
2017-09-02T20:41:27.984Z,13.89
2017-09-02T20:42:28.724Z,13.87
2017-09-02T20:43:29.440Z,13.79
2017-09-02T20:44:30.385Z,13.77
2017-09-02T20:45:31.078Z,13.85
2017-09-02T20:46:31.833Z,13.74
2017-09-02T20:47:32.525Z,13.79
2017-09-02T20:48:33.219Z,13.71
2017-09-02T20:49:34.161Z,13.72
2017-09-02T20:50:34.866Z,13.71
2017-09-02T20:51:35.573Z,13.72
2017-09-02T20:52:36.263Z,13.75
2017-09-02T20:53:36.949Z,13.75
2017-09-02T20:54:37.891Z,13.65
2017-09-02T20:55:38.583Z,13.72
2017-09-02T20:56:39.278Z,13.67
2017-09-02T20:57:39.982Z,13.72
2017-09-02T20:58:40.668Z,13.62
2017-09-02T20:59:41.607Z,13.65
2017-09-02T21:00:42.309Z,13.74
2017-09-02T21:01:43.002Z,13.74
2017-09-02T21:02:43.713Z,13.71
2017-09-02T21:03:44.404Z,13.62
2017-09-02T21:04:45.354Z,13.65
2017-09-02T21:05:46.098Z,13.60
2017-09-02T21:06:46.785Z,13.56
2017-09-02T21:07:47.477Z,13.62
2017-09-02T21:08:48.168Z,13.52
2017-09-02T21:09:49.106Z,13.52
2017-09-02T21:10:49.793Z,13.50
2017-09-02T21:11:50.498Z,13.53
2017-09-02T21:12:51.187Z,13.47
2017-09-02T21:13:51.883Z,13.49
2017-09-02T21:14:52.825Z,13.44
2017-09-02T21:15:53.516Z,13.47
2017-09-02T21:16:54.210Z,13.47
2017-09-02T21:17:54.900Z,13.56
2017-09-02T21:18:55.587Z,13.49
2017-09-02T21:19:56.531Z,13.47
2017-09-02T21:20:57.221Z,13.47
2017-09-02T21:21:57.913Z,13.47
2017-09-02T21:22:58.622Z,13.49
2017-09-02T21:23:59.314Z,13.50
2017-09-02T21:25:00.253Z,13.46
2017-09-02T21:26:00.960Z,13.52
2017-09-02T21:27:01.653Z,13.46
2017-09-02T21:28:02.344Z,13.46
2017-09-02T21:29:03.032Z,13.50
2017-09-02T21:30:03.976Z,13.53
2017-09-02T21:31:04.666Z,13.46
2017-09-02T21:32:05.364Z,13.52
2017-09-02T21:33:06.055Z,13.39
2017-09-02T21:34:06.746Z,13.46
2017-09-02T21:35:07.688Z,13.35
2017-09-02T21:36:08.397Z,13.52
2017-09-02T21:37:09.092Z,13.37
2017-09-02T21:38:09.796Z,13.49
2017-09-02T21:39:10.485Z,13.47
2017-09-02T21:40:11.421Z,13.52
2017-09-02T21:41:12.117Z,13.52
2017-09-02T21:42:12.814Z,13.47
2017-09-02T21:43:13.510Z,13.31
2017-09-02T21:44:14.266Z,13.42
2017-09-02T21:45:15.228Z,13.50
2017-09-02T21:46:15.993Z,13.49
2017-09-02T21:47:16.686Z,13.54
2017-09-02T21:48:17.403Z,13.50
2017-09-02T21:49:18.103Z,13.44
2017-09-02T21:50:19.052Z,13.44
2017-09-02T21:51:19.764Z,13.47
2017-09-02T21:52:20.461Z,13.46
2017-09-02T21:53:21.151Z,13.44
2017-09-02T21:54:21.843Z,13.50
2017-09-02T21:55:22.791Z,13.49
2017-09-02T21:56:23.479Z,13.52
2017-09-02T21:57:24.224Z,13.44
2017-09-02T21:58:24.939Z,13.46
2017-09-02T21:59:25.627Z,13.44
2017-09-02T22:00:26.600Z,13.49
2017-09-02T22:01:27.296Z,13.46
2017-09-02T22:02:27.983Z,13.50
2017-09-02T22:03:28.674Z,13.47
2017-09-02T22:04:29.363Z,13.47
2017-09-02T22:05:30.305Z,13.42
2017-09-02T22:06:31.025Z,13.46
2017-09-02T22:07:31.693Z,13.44
2017-09-02T22:08:32.385Z,13.44
2017-09-02T22:09:33.073Z,13.47
2017-09-02T22:10:34.019Z,13.52
2017-09-02T22:11:34.711Z,13.50
2017-09-02T22:12:35.396Z,13.41
2017-09-02T22:13:36.084Z,13.46
2017-09-02T22:14:36.772Z,13.50
2017-09-02T22:15:37.711Z,13.54
2017-09-02T22:16:38.402Z,13.50
2017-09-02T22:17:39.095Z,13.39
2017-09-02T22:18:39.785Z,13.41
2017-09-02T22:19:40.474Z,13.42
2017-09-02T22:20:41.426Z,13.41
2017-09-02T22:21:42.115Z,13.31
2017-09-02T22:22:42.810Z,13.33
2017-09-02T22:23:43.503Z,13.30
2017-09-02T22:24:44.191Z,13.35
2017-09-02T22:25:45.131Z,13.41
2017-09-02T22:26:45.820Z,13.41
2017-09-02T22:27:46.521Z,13.37
2017-09-02T22:28:47.214Z,13.31
2017-09-02T22:29:47.906Z,13.35
2017-09-02T22:30:48.849Z,13.37
2017-09-02T22:31:49.545Z,13.31
2017-09-02T22:32:50.235Z,13.30
2017-09-02T22:33:50.922Z,13.37
2017-09-02T22:34:51.615Z,13.41
2017-09-02T22:35:52.557Z,13.35
2017-09-02T22:36:53.245Z,13.38
2017-09-02T22:38:54.629Z,13.39
2017-09-02T22:39:55.322Z,13.31
2017-09-02T22:40:56.267Z,13.30
2017-09-02T22:41:56.953Z,13.30
2017-09-02T22:42:57.639Z,13.31
2017-09-02T22:43:58.337Z,13.23
2017-09-02T22:44:59.026Z,13.35
2017-09-02T22:45:59.966Z,13.28
2017-09-02T22:47:00.656Z,13.28
2017-09-02T22:48:01.344Z,13.33
2017-09-02T22:49:02.030Z,13.30
2017-09-02T22:50:02.716Z,13.25
2017-09-02T22:51:03.657Z,13.30
2017-09-02T22:52:04.347Z,13.28
2017-09-02T22:53:05.037Z,13.25
2017-09-02T22:54:05.726Z,13.27
2017-09-02T22:55:06.411Z,13.31
2017-09-02T22:56:07.348Z,13.37
2017-09-02T22:57:08.039Z,13.30
2017-09-02T22:58:08.727Z,13.28
2017-09-02T22:59:09.418Z,13.25
2017-09-02T23:00:10.107Z,13.25
2017-09-02T23:01:11.044Z,13.28
2017-09-02T23:02:11.740Z,13.38
2017-09-02T23:03:12.428Z,13.42
2017-09-02T23:04:13.115Z,13.30
2017-09-02T23:05:13.807Z,13.30
2017-09-02T23:06:14.748Z,13.25
2017-09-02T23:07:15.437Z,13.37
2017-09-02T23:08:16.126Z,13.31
2017-09-02T23:09:16.818Z,13.31
2017-09-02T23:10:17.507Z,13.27
2017-09-02T23:11:18.448Z,13.25
2017-09-02T23:12:19.138Z,13.22
2017-09-02T23:13:19.827Z,13.25
2017-09-02T23:14:20.518Z,13.35
2017-09-02T23:15:21.208Z,13.27
2017-09-02T23:16:22.162Z,13.19
2017-09-02T23:17:22.853Z,13.22
2017-09-02T23:18:23.545Z,13.18
2017-09-02T23:19:24.236Z,13.37
2017-09-02T23:20:24.921Z,13.23
2017-09-02T23:21:25.860Z,13.23
2017-09-02T23:22:26.560Z,13.35
2017-09-02T23:23:27.250Z,13.31
2017-09-02T23:24:27.944Z,13.27
2017-09-02T23:25:28.638Z,13.23
2017-09-02T23:26:29.579Z,13.23
2017-09-02T23:27:30.272Z,13.15
2017-09-02T23:28:30.957Z,13.12
2017-09-02T23:29:31.642Z,13.15
2017-09-02T23:30:32.337Z,13.12
2017-09-02T23:31:33.327Z,13.25
2017-09-02T23:32:34.022Z,13.23
2017-09-02T23:33:34.713Z,13.19
2017-09-02T23:34:35.404Z,13.33
2017-09-02T23:35:36.098Z,13.28
2017-09-02T23:36:36.794Z,13.30
2017-09-02T23:37:37.484Z,13.30
2017-09-02T23:38:38.174Z,13.33
2017-09-02T23:39:38.859Z,13.35
2017-09-02T23:40:39.547Z,13.23
2017-09-02T23:41:40.488Z,13.27
2017-09-02T23:42:41.176Z,13.25
2017-09-02T23:43:41.869Z,13.23
2017-09-02T23:44:42.555Z,13.27
2017-09-02T23:45:43.248Z,13.25
2017-09-02T23:46:44.188Z,13.23
2017-09-02T23:47:44.881Z,13.19
2017-09-02T23:48:45.579Z,13.23
2017-09-02T23:49:46.268Z,13.15
2017-09-02T23:50:46.967Z,13.13
2017-09-02T23:51:48.006Z,13.19
2017-09-02T23:52:48.698Z,13.18
2017-09-02T23:53:49.386Z,13.13
2017-09-02T23:54:50.087Z,13.16
2017-09-02T23:55:50.776Z,13.13
2017-09-02T23:56:51.716Z,13.18
2017-09-02T23:57:52.404Z,13.19
2017-09-02T23:58:53.097Z,13.20
2017-09-02T23:59:53.785Z,13.11
